Etusivu
METAR-TAF:

METAR-TAF

Lentoasemat :

McGregor Executive Airport

Waco, Texas, Yhdysvallat

Leveyspiiri: 31-29N, Pituuspiiri: 097-19W, korkeus merenpinnasta: 180 m

Tämänhetkinen sää

Tämä raportti tehtiin 51 minuuttia sitten, kello 21.56 UTC
Tuuli 10 kn kaakosta
Lämpötila 33°C
Kosteus 44%
Ilmanpaine 1016 hPa
Näkyvyys: 16.1 km
Muutamia pilviä 5500 ft:n korkeudessa

METAR: KPWG 022156Z AUTO 14010KT 10SM FEW055 33/19 A3000 RMK AO2 LTG DSNT W SLP152 T03280194 $

Aika: 17:47 (22:47 UTC)


TAF: puuttuu

Säähavainnot ja -ennusteet yli 4000 lentoasemalta (METAR- ja TAF-raportit).

Käytössä olevat sääasemat on merkitty karttaan keltaisilla ja punaisilla pisteillä.

Aseta hiiri pisteen päälle nähdäksesi sääaseman nimen.

Klikkaa sitten nähdäksesi säähavainnot ja -ennusteet.

Kartan vaihtaminen: klikkaa mustalla rastilla varustettuja vihreitä pisteitä, niin voit zoomata sisään; viivalla varustettua vihreää pistettä, niin voit zoomata ulos tai vihreitä nuolia, niin pääset viereisille kartoille.


METAR-TAF: